Time;durP1;ratioP1;P1;durP2;ratioP2;P2;SDS_P1;SDS_P2;PMS_P1;PMS_P2;Temp;Humidity;BMP_temperature;BMP_pressure;BME280_temperature;BME280_humidity;BME280_pressure;Samples;Min_cycle;Max_cycle;Signal;HPM_P1;HPM_P2
2023/10/21 00:01:12;;;;;;;7.73;2.07;;;5.50;99.90;;;;;;5029632;28;20221;-80
2023/10/21 00:03:39;;;;;;;7.80;2.13;;;5.50;99.90;;;;;;5020220;28;20226;-82
2023/10/21 00:06:07;;;;;;;22.27;3.07;;;5.50;99.90;;;;;;5022286;28;20221;-79
2023/10/21 00:08:34;;;;;;;9.63;2.33;;;5.50;99.90;;;;;;5030474;28;20925;-80
2023/10/21 00:11:05;;;;;;;40.30;4.30;;;5.50;99.90;;;;;;5023080;28;20762;-79
2023/10/21 00:13:32;;;;;;;7.47;2.30;;;5.50;99.90;;;;;;5011481;28;20240;-81
2023/10/21 00:15:59;;;;;;;4.13;2.20;;;5.50;99.90;;;;;;5018409;28;20345;-79
2023/10/21 00:18:26;;;;;;;13.30;3.17;;;5.50;99.90;;;;;;5020682;28;20224;-79
2023/10/21 00:20:54;;;;;;;10.47;2.67;;;5.50;99.90;;;;;;5035173;28;20219;-80
2023/10/21 00:23:23;;;;;;;3.13;2.20;;;5.50;99.90;;;;;;5022962;28;20311;-80
2023/10/21 00:25:50;;;;;;;5.40;2.50;;;5.50;99.90;;;;;;5024541;28;20366;-78
2023/10/21 00:28:17;;;;;;;11.70;3.20;;;5.50;99.90;;;;;;5027732;28;20224;-79
2023/10/21 00:30:47;;;;;;;5.93;3.00;;;5.50;99.90;;;;;;5026573;28;20231;-79
2023/10/21 00:33:14;;;;;;;39.33;4.53;;;5.50;99.90;;;;;;5023362;28;20223;-79
2023/10/21 00:35:45;;;;;;;6.93;3.20;;;5.50;99.90;;;;;;5027815;28;20239;-79
2023/10/21 00:38:12;;;;;;;5.60;2.87;;;5.50;99.90;;;;;;5029107;28;20228;-79
2023/10/21 00:40:50;;;;;;;40.47;5.03;;;5.50;99.90;;;;;;5020127;28;20611;-84
2023/10/21 00:43:35;;;;;;;31.37;4.60;;;5.50;99.90;;;;;;5018041;28;20712;-81
2023/10/21 00:46:05;;;;;;;10.27;3.30;;;5.60;99.90;;;;;;5030121;28;20219;-79
2023/10/21 00:48:33;;;;;;;15.27;3.90;;;5.60;99.90;;;;;;5025790;28;20223;-80
2023/10/21 00:51:01;;;;;;;6.93;3.13;;;5.60;99.90;;;;;;5026166;28;20221;-79
2023/10/21 00:53:30;;;;;;;13.57;3.40;;;5.60;99.90;;;;;;5023080;28;20779;-79
2023/10/21 00:55:59;;;;;;;4.20;3.10;;;5.60;99.90;;;;;;5020453;28;20438;-80
2023/10/21 00:58:27;;;;;;;5.40;3.07;;;5.60;99.90;;;;;;5024567;28;20278;-80
2023/10/21 01:00:55;;;;;;;7.53;3.47;;;5.60;99.90;;;;;;5015703;28;20231;-80
2023/10/21 01:03:23;;;;;;;25.77;4.60;;;5.60;99.90;;;;;;5016867;28;20231;-80
2023/10/21 01:05:50;;;;;;;6.10;3.30;;;5.60;99.90;;;;;;5023199;28;20220;-81
2023/10/21 01:08:17;;;;;;;5.87;3.30;;;5.60;99.90;;;;;;5007600;28;20226;-81
2023/10/21 01:10:43;;;;;;;9.40;3.57;;;5.60;99.90;;;;;;5015413;28;20484;-81
2023/10/21 01:13:12;;;;;;;6.23;3.73;;;5.60;99.90;;;;;;5024126;28;20227;-80
2023/10/21 01:15:38;;;;;;;7.27;3.70;;;5.60;99.90;;;;;;5021247;28;20224;-80
2023/10/21 01:18:07;;;;;;;7.07;3.87;;;5.70;99.90;;;;;;5021396;28;20235;-81
2023/10/21 01:20:35;;;;;;;7.67;4.30;;;5.70;99.90;;;;;;5025435;28;20583;-81
2023/10/21 01:23:03;;;;;;;11.20;4.73;;;5.70;99.90;;;;;;5024223;28;20524;-80
2023/10/21 01:25:32;;;;;;;9.70;4.20;;;5.70;99.90;;;;;;5022694;28;20800;-79
2023/10/21 01:27:59;;;;;;;14.60;5.17;;;5.70;99.90;;;;;;5040596;28;20221;-80
2023/10/21 01:30:26;;;;;;;9.97;4.57;;;5.70;99.90;;;;;;5039767;28;20659;-81
2023/10/21 01:32:54;;;;;;;42.63;6.80;;;5.70;99.90;;;;;;5032914;28;20208;-80
2023/10/21 01:35:21;;;;;;;21.43;5.60;;;5.70;99.90;;;;;;5021822;28;20274;-79
2023/10/21 01:37:48;;;;;;;43.17;7.07;;;5.70;99.90;;;;;;5026110;28;20230;-79
2023/10/21 01:40:16;;;;;;;33.90;6.47;;;5.70;99.90;;;;;;5021612;28;20225;-80
2023/10/21 01:42:44;;;;;;;70.37;9.43;;;5.70;99.90;;;;;;5032321;28;20249;-80
2023/10/21 01:45:11;;;;;;;19.97;6.40;;;5.70;99.90;;;;;;5027418;28;20673;-84
2023/10/21 01:47:38;;;;;;;78.27;9.57;;;5.80;99.90;;;;;;5029250;28;20307;-80
2023/10/21 01:50:08;;;;;;;11.50;6.03;;;5.80;99.90;;;;;;5030043;28;20236;-80
2023/10/21 01:52:35;;;;;;;20.97;6.37;;;5.80;99.90;;;;;;5032414;28;20649;-80
2023/10/21 01:55:04;;;;;;;10.77;6.17;;;5.80;99.90;;;;;;5029026;28;20231;-81
2023/10/21 01:57:31;;;;;;;14.70;6.17;;;5.80;99.90;;;;;;5027655;28;20525;-81
2023/10/21 01:59:59;;;;;;;28.73;7.70;;;5.80;99.90;;;;;;5025058;28;20224;-81
2023/10/21 02:02:26;;;;;;;16.70;6.30;;;5.80;99.90;;;;;;5023383;28;20247;-81
2023/10/21 02:04:53;;;;;;;10.27;5.63;;;5.90;99.90;;;;;;5022580;28;20321;-80
2023/10/21 02:07:20;;;;;;;14.10;6.70;;;5.80;99.90;;;;;;5023584;28;20225;-83
2023/10/21 02:09:48;;;;;;;24.80;7.53;;;5.90;99.90;;;;;;5031891;28;20221;-80
2023/10/21 02:12:15;;;;;;;16.20;6.13;;;5.90;99.90;;;;;;5027054;28;20447;-80
2023/10/21 02:14:41;;;;;;;57.30;9.33;;;5.90;99.90;;;;;;5024325;28;20225;-83
2023/10/21 02:17:09;;;;;;;19.40;6.70;;;5.90;99.90;;;;;;5020577;28;20217;-82
2023/10/21 02:19:36;;;;;;;31.43;8.73;;;5.90;99.90;;;;;;5015738;28;20300;-84
2023/10/21 02:22:03;;;;;;;109.93;11.63;;;5.90;99.90;;;;;;5023805;28;20313;-80
2023/10/21 02:24:34;;;;;;;122.77;13.80;;;5.90;99.90;;;;;;5018836;28;20228;-80
2023/10/21 02:27:00;;;;;;;21.40;7.17;;;5.90;99.90;;;;;;5021643;28;20227;-83
2023/10/21 02:29:27;;;;;;;11.50;6.37;;;6.00;99.90;;;;;;5021789;28;20237;-80
2023/10/21 02:31:54;;;;;;;17.43;7.17;;;6.00;99.90;;;;;;5022529;28;20308;-80
2023/10/21 02:34:22;;;;;;;27.00;8.33;;;6.00;99.90;;;;;;5023397;28;20671;-79
2023/10/21 02:36:49;;;;;;;22.07;7.63;;;6.00;99.90;;;;;;5025163;28;20233;-79
2023/10/21 02:39:17;;;;;;;12.17;7.47;;;6.00;99.90;;;;;;5020357;28;20223;-79
2023/10/21 02:41:44;;;;;;;15.27;7.17;;;6.00;99.90;;;;;;5024379;28;20282;-80
2023/10/21 02:44:11;;;;;;;19.07;7.80;;;6.00;99.90;;;;;;5037401;28;20274;-80
2023/10/21 02:46:37;;;;;;;22.83;7.57;;;6.10;99.90;;;;;;5023714;28;20343;-80
2023/10/21 02:49:05;;;;;;;16.63;7.90;;;6.00;99.90;;;;;;5023315;28;20241;-79
2023/10/21 02:51:33;;;;;;;26.53;8.43;;;6.10;99.90;;;;;;5018569;28;20253;-81
2023/10/21 02:53:59;;;;;;;15.80;7.80;;;6.10;99.90;;;;;;5016871;28;20230;-81
2023/10/21 02:56:26;;;;;;;32.83;8.23;;;6.10;99.90;;;;;;5020755;28;20311;-79
2023/10/21 02:58:53;;;;;;;26.13;8.43;;;6.10;99.90;;;;;;5024075;28;20217;-80
2023/10/21 03:01:21;;;;;;;62.90;9.63;;;6.10;99.90;;;;;;5022576;28;20231;-80
2023/10/21 03:03:50;;;;;;;15.37;7.33;;;6.10;99.90;;;;;;5024449;28;20222;-80
2023/10/21 03:06:18;;;;;;;19.57;8.80;;;6.10;99.90;;;;;;5021625;28;20225;-80
2023/10/21 03:08:46;;;;;;;26.93;9.40;;;6.10;99.90;;;;;;5021296;28;20621;-81
2023/10/21 03:11:14;;;;;;;29.17;9.67;;;6.10;99.90;;;;;;5018906;28;20232;-80
2023/10/21 03:13:41;;;;;;;21.20;8.43;;;6.10;99.90;;;;;;5023230;28;20228;-80
2023/10/21 03:16:08;;;;;;;39.80;9.70;;;6.20;99.90;;;;;;5018839;28;20221;-82
2023/10/21 03:18:36;;;;;;;16.67;8.77;;;6.20;99.90;;;;;;5026281;28;20221;-79
2023/10/21 03:21:03;;;;;;;25.00;8.57;;;6.20;99.90;;;;;;5024154;28;20232;-81
2023/10/21 03:23:30;;;;;;;21.00;9.50;;;6.20;99.90;;;;;;5019801;28;20240;-79
2023/10/21 03:26:00;;;;;;;32.93;9.87;;;6.20;99.90;;;;;;5027039;28;20223;-79
2023/10/21 03:28:27;;;;;;;17.73;8.47;;;6.20;99.90;;;;;;5030374;28;20700;-79
2023/10/21 03:30:56;;;;;;;44.70;10.50;;;6.20;99.90;;;;;;5030480;28;20218;-79
2023/10/21 03:33:24;;;;;;;19.83;9.00;;;6.20;99.90;;;;;;5029306;28;20633;-79
2023/10/21 03:35:54;;;;;;;27.57;9.70;;;6.30;99.90;;;;;;5047470;28;20237;-79
2023/10/21 03:38:22;;;;;;;26.87;9.87;;;6.30;99.90;;;;;;5029023;28;20230;-80
2023/10/21 03:40:55;;;;;;;171.83;17.33;;;6.30;99.90;;;;;;5025751;28;20223;-79
2023/10/21 03:43:23;;;;;;;20.33;8.90;;;6.30;99.90;;;;;;5024067;28;20665;-80
2023/10/21 03:45:50;;;;;;;24.43;9.47;;;6.30;99.90;;;;;;5021902;28;20254;-79
2023/10/21 03:48:17;;;;;;;104.27;14.33;;;6.30;99.90;;;;;;5021743;28;20262;-80
2023/10/21 03:50:43;;;;;;;31.83;10.87;;;6.40;99.90;;;;;;5023119;28;20550;-80
2023/10/21 03:53:11;;;;;;;111.53;13.90;;;6.40;99.90;;;;;;5022513;28;20264;-80
2023/10/21 03:55:38;;;;;;;43.27;10.03;;;6.40;99.90;;;;;;5020232;28;20410;-80
2023/10/21 03:58:05;;;;;;;36.37;9.70;;;6.40;99.90;;;;;;5033538;28;20632;-79
2023/10/21 04:00:33;;;;;;;25.67;9.10;;;6.40;99.90;;;;;;5023504;28;20225;-79
2023/10/21 04:03:00;;;;;;;57.70;11.03;;;6.40;99.90;;;;;;5023602;28;20420;-80
2023/10/21 04:05:26;;;;;;;15.90;8.30;;;6.40;99.90;;;;;;5026258;28;20261;-80
2023/10/21 04:07:55;;;;;;;54.93;11.00;;;6.40;99.90;;;;;;5026740;28;20216;-80
2023/10/21 04:10:22;;;;;;;27.23;9.33;;;6.50;99.90;;;;;;5028461;28;20227;-80
2023/10/21 04:12:49;;;;;;;62.77;11.73;;;6.50;99.90;;;;;;5026536;28;20740;-80
2023/10/21 04:15:16;;;;;;;18.50;8.60;;;6.50;99.90;;;;;;5023379;28;20315;-80
2023/10/21 04:17:45;;;;;;;26.10;9.60;;;6.50;99.90;;;;;;5022890;28;20230;-80
2023/10/21 04:20:16;;;;;;;37.40;9.87;;;6.50;99.90;;;;;;5036137;28;20230;-80
2023/10/21 04:22:43;;;;;;;40.00;9.37;;;6.50;99.90;;;;;;5025148;28;20586;-79
2023/10/21 04:25:10;;;;;;;88.03;13.23;;;6.50;99.90;;;;;;5020458;28;20577;-80
2023/10/21 04:27:37;;;;;;;30.07;9.03;;;6.50;99.90;;;;;;5019225;28;20242;-83
2023/10/21 04:30:05;;;;;;;16.43;8.13;;;6.50;99.90;;;;;;5022158;28;20221;-82
2023/10/21 04:32:32;;;;;;;17.40;8.60;;;6.50;99.90;;;;;;5022440;28;20234;-81
2023/10/21 04:35:01;;;;;;;14.53;8.63;;;6.50;99.90;;;;;;5019052;28;20322;-80
2023/10/21 04:37:28;;;;;;;23.73;9.40;;;6.50;99.90;;;;;;5023093;28;20229;-80
2023/10/21 04:39:55;;;;;;;51.37;11.20;;;6.50;99.90;;;;;;5020604;28;20221;-80
2023/10/21 04:42:23;;;;;;;26.23;9.73;;;6.60;99.90;;;;;;5021479;28;20238;-81
2023/10/21 04:44:51;;;;;;;127.43;13.53;;;6.60;99.90;;;;;;5019045;28;20231;-81
2023/10/21 04:47:18;;;;;;;19.83;8.87;;;6.60;99.90;;;;;;5022976;28;20227;-80
2023/10/21 04:49:45;;;;;;;17.03;9.20;;;6.60;99.90;;;;;;5022941;28;20237;-80
2023/10/21 04:52:14;;;;;;;24.03;9.40;;;6.60;99.90;;;;;;5021971;28;20703;-79
2023/10/21 04:54:41;;;;;;;18.67;8.20;;;6.60;99.90;;;;;;5018634;28;20225;-80
2023/10/21 04:57:08;;;;;;;49.97;11.30;;;6.60;99.90;;;;;;5022879;28;20712;-79
2023/10/21 04:59:35;;;;;;;25.50;9.50;;;6.60;99.90;;;;;;5021045;28;20783;-80
2023/10/21 05:02:03;;;;;;;31.00;9.70;;;6.60;99.90;;;;;;5019534;28;20251;-80
2023/10/21 05:04:31;;;;;;;22.40;9.30;;;6.60;99.90;;;;;;5022902;28;20238;-81
2023/10/21 05:06:58;;;;;;;144.53;15.13;;;6.60;99.90;;;;;;5021625;28;20322;-80
2023/10/21 05:09:26;;;;;;;20.67;9.20;;;6.70;99.90;;;;;;5019251;28;20239;-82
2023/10/21 05:11:53;;;;;;;55.07;11.73;;;6.70;99.90;;;;;;5018954;28;20322;-81
2023/10/21 05:14:20;;;;;;;30.37;9.53;;;6.70;99.90;;;;;;5023834;28;20241;-80
2023/10/21 05:16:47;;;;;;;168.10;16.77;;;6.70;99.90;;;;;;5025714;28;20219;-79
2023/10/21 05:19:13;;;;;;;30.73;9.70;;;6.70;99.90;;;;;;5026762;28;20266;-79
2023/10/21 05:21:40;;;;;;;48.67;11.00;;;6.70;99.90;;;;;;5026266;28;20261;-79
2023/10/21 05:24:08;;;;;;;20.67;9.30;;;6.70;99.90;;;;;;5023562;28;20229;-79
2023/10/21 05:26:36;;;;;;;33.03;10.50;;;6.70;99.90;;;;;;5020713;28;20223;-79
2023/10/21 05:29:03;;;;;;;26.37;9.97;;;6.80;99.90;;;;;;5024632;28;20748;-79
2023/10/21 05:31:29;;;;;;;16.40;9.43;;;6.80;99.90;;;;;;5023924;28;20232;-79
2023/10/21 05:33:57;;;;;;;27.80;10.37;;;6.70;99.90;;;;;;5025360;28;20226;-80
2023/10/21 05:36:24;;;;;;;86.90;12.40;;;6.80;99.90;;;;;;5023772;28;20227;-79
2023/10/21 05:38:51;;;;;;;19.90;8.33;;;6.80;99.90;;;;;;5023895;28;20775;-79
2023/10/21 05:41:17;;;;;;;34.63;9.60;;;6.80;99.90;;;;;;5020108;28;20242;-79
2023/10/21 05:43:46;;;;;;;51.10;10.93;;;6.80;99.90;;;;;;5023655;28;20293;-79
2023/10/21 05:46:12;;;;;;;26.90;10.10;;;6.80;99.90;;;;;;5022925;28;20231;-79
2023/10/21 05:48:39;;;;;;;27.10;10.43;;;6.90;99.90;;;;;;5024631;28;20803;-79
2023/10/21 05:51:06;;;;;;;25.80;9.50;;;6.90;99.90;;;;;;5021848;28;20266;-79
2023/10/21 05:53:33;;;;;;;23.07;8.97;;;6.90;99.90;;;;;;5019124;28;20329;-79
2023/10/21 05:56:00;;;;;;;25.90;9.80;;;6.90;99.90;;;;;;5020066;28;20317;-79
2023/10/21 05:58:27;;;;;;;42.63;10.77;;;6.90;99.90;;;;;;5021646;28;20599;-78
2023/10/21 06:00:55;;;;;;;24.27;9.80;;;6.90;99.90;;;;;;5015852;28;20231;-78
2023/10/21 06:03:23;;;;;;;171.20;17.40;;;6.90;99.90;;;;;;5009725;28;20231;-78
2023/10/21 06:05:49;;;;;;;19.20;8.73;;;6.90;99.90;;;;;;5022658;28;20274;-79
2023/10/21 06:08:16;;;;;;;26.77;9.30;;;6.90;99.90;;;;;;5026189;28;20245;-78
2023/10/21 06:10:44;;;;;;;43.33;10.47;;;6.90;99.90;;;;;;5027609;28;20234;-78
2023/10/21 06:13:11;;;;;;;34.90;9.80;;;6.90;99.90;;;;;;5023724;28;20227;-78
2023/10/21 06:15:38;;;;;;;36.30;9.63;;;6.90;99.90;;;;;;5021789;28;20235;-79
2023/10/21 06:18:06;;;;;;;46.33;10.43;;;6.90;99.90;;;;;;5024726;28;20291;-78
2023/10/21 06:20:33;;;;;;;20.73;10.03;;;7.00;99.90;;;;;;5022923;28;20292;-78
2023/10/21 06:23:00;;;;;;;27.10;9.90;;;7.00;99.90;;;;;;5017805;28;20758;-78
2023/10/21 06:25:27;;;;;;;57.70;10.43;;;7.00;99.90;;;;;;5026064;28;20603;-78
2023/10/21 06:27:53;;;;;;;57.73;11.47;;;7.00;99.90;;;;;;5022921;28;20637;-78
2023/10/21 06:30:20;;;;;;;54.63;11.97;;;7.00;99.90;;;;;;5023411;28;20261;-78
2023/10/21 06:32:47;;;;;;;17.77;9.87;;;7.00;99.90;;;;;;5023342;28;20235;-78
2023/10/21 06:35:15;;;;;;;70.43;12.20;;;7.00;99.90;;;;;;5020141;28;20301;-80
2023/10/21 06:37:42;;;;;;;18.60;9.30;;;7.10;99.90;;;;;;5024994;28;20563;-79
2023/10/21 06:40:11;;;;;;;55.43;11.87;;;7.10;99.90;;;;;;5025375;28;20605;-80
2023/10/21 06:42:38;;;;;;;15.33;8.83;;;7.10;99.90;;;;;;5025421;28;20227;-80
2023/10/21 06:45:06;;;;;;;15.17;7.97;;;7.10;99.90;;;;;;5030489;28;20312;-80
2023/10/21 06:47:34;;;;;;;12.47;7.63;;;7.10;99.90;;;;;;5027085;28;20220;-79
2023/10/21 06:50:01;;;;;;;16.90;7.93;;;7.10;99.90;;;;;;5027734;28;20219;-79
2023/10/21 06:52:31;;;;;;;30.40;9.23;;;7.10;99.90;;;;;;5027145;28;20598;-80
2023/10/21 06:54:59;;;;;;;37.27;9.17;;;7.10;99.90;;;;;;5038140;28;20238;-80
2023/10/21 06:57:27;;;;;;;190.23;19.93;;;7.20;99.90;;;;;;5027784;28;20247;-80
2023/10/21 06:59:53;;;;;;;32.10;9.47;;;7.20;99.90;;;;;;5046679;28;20223;-80
2023/10/21 07:02:20;;;;;;;97.37;12.33;;;7.20;99.90;;;;;;5027901;28;20318;-80
2023/10/21 07:04:47;;;;;;;78.73;12.37;;;7.20;99.90;;;;;;5029091;28;20318;-81
2023/10/21 07:07:14;;;;;;;69.13;10.93;;;7.30;99.90;;;;;;5029003;28;20775;-80
2023/10/21 07:09:42;;;;;;;21.83;9.43;;;7.30;99.90;;;;;;5025900;28;20228;-80
2023/10/21 07:12:11;;;;;;;35.53;9.90;;;7.30;99.90;;;;;;5027776;28;20233;-81
2023/10/21 07:14:37;;;;;;;76.83;12.00;;;7.30;99.90;;;;;;5030677;28;20742;-80
2023/10/21 07:17:05;;;;;;;51.87;11.57;;;7.40;99.90;;;;;;5027339;28;20735;-79
2023/10/21 07:19:32;;;;;;;46.27;10.83;;;7.40;99.90;;;;;;5024290;28;20611;-79
2023/10/21 07:21:58;;;;;;;32.00;10.10;;;7.40;99.90;;;;;;5025273;28;20732;-80
2023/10/21 07:24:25;;;;;;;21.00;9.33;;;7.50;99.90;;;;;;5026618;28;20232;-80
2023/10/21 07:26:53;;;;;;;25.70;9.73;;;7.50;99.90;;;;;;5029065;28;20224;-80
2023/10/21 07:29:19;;;;;;;22.83;9.10;;;7.50;99.90;;;;;;5023371;28;20750;-80
2023/10/21 07:31:46;;;;;;;19.73;9.67;;;7.50;99.90;;;;;;5018729;28;20745;-80
2023/10/21 07:34:13;;;;;;;15.23;9.03;;;7.50;99.90;;;;;;5012290;28;20557;-80
2023/10/21 07:36:39;;;;;;;22.60;8.83;;;7.60;99.90;;;;;;5019469;28;20262;-80
2023/10/21 07:39:06;;;;;;;14.30;8.70;;;7.60;99.90;;;;;;5039107;28;20235;-80
2023/10/21 07:41:33;;;;;;;14.37;8.93;;;7.60;99.90;;;;;;5025585;28;20241;-80
2023/10/21 07:44:01;;;;;;;18.97;8.77;;;7.60;99.90;;;;;;5023933;28;20269;-79
2023/10/21 07:46:29;;;;;;;19.00;8.63;;;7.60;99.90;;;;;;5025151;28;20250;-80
2023/10/21 07:48:56;;;;;;;13.73;8.00;;;7.60;99.90;;;;;;5026962;28;20259;-79
2023/10/21 07:51:23;;;;;;;24.80;8.47;;;7.60;99.90;;;;;;5023629;28;20512;-80
2023/10/21 07:53:50;;;;;;;10.23;7.07;;;7.60;99.90;;;;;;5023433;28;20227;-79
2023/10/21 07:56:16;;;;;;;9.47;7.30;;;7.60;99.90;;;;;;5022939;28;20251;-79
2023/10/21 07:58:43;;;;;;;12.13;7.17;;;7.60;99.90;;;;;;5024813;28;20224;-79
2023/10/21 08:01:11;;;;;;;14.87;7.30;;;7.70;99.90;;;;;;5021689;28;20230;-80
2023/10/21 08:03:38;;;;;;;9.30;7.03;;;7.70;99.90;;;;;;5022122;28;20228;-80
2023/10/21 08:06:07;;;;;;;15.93;8.10;;;7.70;99.90;;;;;;5025186;28;20318;-80
2023/10/21 08:08:34;;;;;;;9.80;6.87;;;7.70;99.90;;;;;;5026165;28;20224;-80
2023/10/21 08:11:02;;;;;;;7.30;6.40;;;7.80;99.90;;;;;;5026708;28;20231;-80
2023/10/21 08:13:29;;;;;;;31.03;7.63;;;7.80;99.90;;;;;;5026040;28;20322;-80
2023/10/21 08:15:56;;;;;;;8.93;6.03;;;7.90;99.90;;;;;;5027077;28;20657;-79
2023/10/21 08:18:24;;;;;;;16.47;6.70;;;7.90;99.90;;;;;;5025704;28;20737;-80
2023/10/21 08:20:51;;;;;;;9.77;6.13;;;7.90;99.90;;;;;;5025565;28;20235;-80
2023/10/21 08:23:18;;;;;;;11.10;6.30;;;7.90;99.90;;;;;;5021079;28;20234;-80
2023/10/21 08:25:44;;;;;;;9.77;6.03;;;7.90;99.90;;;;;;5025560;28;20238;-80
2023/10/21 08:28:11;;;;;;;8.27;5.43;;;7.90;99.90;;;;;;5023456;28;20233;-79
2023/10/21 08:30:38;;;;;;;7.80;6.10;;;7.90;99.90;;;;;;5019278;28;20512;-80
2023/10/21 08:33:06;;;;;;;8.83;6.33;;;7.90;99.90;;;;;;5021618;28;20226;-80
2023/10/21 08:35:34;;;;;;;10.27;6.10;;;7.90;99.90;;;;;;5017996;28;20224;-79
2023/10/21 08:38:01;;;;;;;7.20;5.93;;;8.00;99.90;;;;;;5023595;28;20592;-79
2023/10/21 08:40:28;;;;;;;10.77;6.13;;;8.00;99.90;;;;;;5024872;28;20223;-78
2023/10/21 08:42:59;;;;;;;9.07;6.37;;;8.00;99.90;;;;;;5026220;28;20234;-79
2023/10/21 08:45:26;;;;;;;8.83;6.43;;;8.10;99.90;;;;;;5028456;28;20252;-78
2023/10/21 08:47:54;;;;;;;9.00;6.70;;;8.10;99.90;;;;;;5026459;28;20220;-78
2023/10/21 08:50:21;;;;;;;9.17;6.73;;;8.10;99.90;;;;;;5028467;28;20232;-79
2023/10/21 08:52:51;;;;;;;13.47;5.97;;;8.10;99.90;;;;;;5021691;28;20223;-79
2023/10/21 08:55:18;;;;;;;9.83;7.47;;;8.20;99.90;;;;;;5023608;28;20283;-79
2023/10/21 08:57:45;;;;;;;8.70;5.57;;;8.20;99.90;;;;;;5023905;28;20227;-78
2023/10/21 09:00:12;;;;;;;10.80;5.60;;;8.30;99.90;;;;;;5024490;28;20833;-79
2023/10/21 09:02:40;;;;;;;7.73;5.53;;;8.30;99.90;;;;;;5038552;28;20234;-79
2023/10/21 09:05:11;;;;;;;10.07;5.10;;;8.30;99.90;;;;;;5026907;28;20395;-78
2023/10/21 09:07:45;;;;;;;5.27;4.17;;;8.40;99.90;;;;;;5023169;28;20314;-78
2023/10/21 09:10:14;;;;;;;5.73;4.70;;;8.40;99.90;;;;;;5024868;28;20804;-78
2023/10/21 09:12:41;;;;;;;5.17;4.00;;;8.50;99.90;;;;;;5020478;28;20223;-78
2023/10/21 09:15:09;;;;;;;15.83;5.03;;;8.60;99.90;;;;;;5023977;28;20227;-78
2023/10/21 09:17:38;;;;;;;9.40;3.63;;;8.60;99.90;;;;;;5025802;28;20231;-78
2023/10/21 09:20:09;;;;;;;3.30;3.00;;;8.60;99.90;;;;;;5023529;28;20565;-78
2023/10/21 09:22:36;;;;;;;4.63;3.37;;;8.60;99.90;;;;;;5018699;28;20237;-78
2023/10/21 09:25:14;;;;;;;4.00;3.17;;;8.70;99.90;;;;;;5015622;28;20235;-78
2023/10/21 09:27:43;;;;;;;11.43;3.80;;;8.70;99.90;;;;;;5017037;28;20240;-78
2023/10/21 09:30:15;;;;;;;6.10;3.37;;;8.80;99.90;;;;;;5011439;28;20222;-78
2023/10/21 09:32:42;;;;;;;4.60;3.37;;;8.80;99.90;;;;;;5017906;28;20222;-79
2023/10/21 09:35:17;;;;;;;4.10;3.43;;;8.80;99.90;;;;;;5021371;28;20684;-78
2023/10/21 09:37:44;;;;;;;5.17;3.80;;;8.80;99.90;;;;;;5030701;28;20232;-78
2023/10/21 09:40:12;;;;;;;6.23;4.03;;;8.80;99.90;;;;;;5026456;28;20274;-78
2023/10/21 09:42:41;;;;;;;6.47;4.33;;;8.80;99.90;;;;;;5027915;28;20300;-78
2023/10/21 09:45:10;;;;;;;5.53;4.70;;;8.80;99.90;;;;;;5022988;28;20234;-78
2023/10/21 09:47:39;;;;;;;41.83;7.07;;;8.80;99.90;;;;;;5027498;28;20221;-79
2023/10/21 09:50:10;;;;;;;7.10;5.43;;;8.80;99.90;;;;;;5025108;28;20215;-78
2023/10/21 09:52:41;;;;;;;6.33;4.90;;;8.90;99.90;;;;;;5041257;28;20922;-79
2023/10/21 09:55:10;;;;;;;14.87;5.63;;;8.90;99.90;;;;;;5024850;28;20239;-78
2023/10/21 09:57:38;;;;;;;6.43;4.83;;;8.90;99.90;;;;;;5023508;28;20233;-79
2023/10/21 10:00:07;;;;;;;16.27;5.90;;;8.90;99.90;;;;;;5028144;28;20224;-79
2023/10/21 10:02:36;;;;;;;6.33;5.60;;;8.90;99.90;;;;;;5028659;28;20411;-78
2023/10/21 10:05:06;;;;;;;11.60;6.27;;;8.90;99.90;;;;;;5026037;28;20228;-79
2023/10/21 10:07:35;;;;;;;6.50;5.60;;;8.90;99.90;;;;;;5024378;28;20224;-79
2023/10/21 10:10:03;;;;;;;7.60;6.10;;;9.00;99.90;;;;;;5027169;28;20269;-79
2023/10/21 10:12:35;;;;;;;7.27;6.07;;;9.00;99.90;;;;;;5026284;28;20230;-79
2023/10/21 10:15:27;;;;;;;7.80;6.30;;;9.00;99.90;;;;;;5023308;28;20223;-79
2023/10/21 10:17:55;;;;;;;11.37;6.67;;;9.00;99.90;;;;;;5023987;28;20322;-79
2023/10/21 10:20:25;;;;;;;7.80;6.40;;;9.10;99.90;;;;;;5024472;28;20223;-79
2023/10/21 10:23:00;;;;;;;8.27;6.57;;;9.20;99.90;;;;;;5020833;28;20232;-79
2023/10/21 10:25:31;;;;;;;9.53;6.80;;;9.20;99.90;;;;;;5024654;28;20470;-79
2023/10/21 10:27:59;;;;;;;7.03;5.83;;;9.20;99.90;;;;;;5027788;28;20701;-79
2023/10/21 10:30:31;;;;;;;7.40;6.07;;;9.30;99.90;;;;;;5026485;28;20234;-79
2023/10/21 10:33:06;;;;;;;6.63;5.53;;;9.30;99.90;;;;;;5034672;28;20792;-79
2023/10/21 10:35:34;;;;;;;12.17;6.90;;;9.30;99.90;;;;;;5022455;28;20645;-79
2023/10/21 10:38:02;;;;;;;9.10;7.00;;;9.30;99.90;;;;;;5020866;28;20314;-79
2023/10/21 10:40:34;;;;;;;10.57;8.10;;;9.40;99.90;;;;;;5024803;28;20652;-79
2023/10/21 10:43:03;;;;;;;12.67;9.30;;;9.40;99.90;;;;;;5039162;28;20279;-79
2023/10/21 10:45:31;;;;;;;9.50;7.00;;;9.40;99.90;;;;;;5025045;28;20240;-79
2023/10/21 10:48:02;;;;;;;9.50;7.60;;;9.40;99.90;;;;;;5036055;28;20493;-79
2023/10/21 10:50:29;;;;;;;8.00;6.90;;;9.40;99.90;;;;;;5019261;28;20634;-79
2023/10/21 10:52:56;;;;;;;8.33;7.00;;;9.40;99.90;;;;;;5037105;28;20225;-79
2023/10/21 10:55:23;;;;;;;8.60;7.33;;;9.30;99.90;;;;;;5037561;28;20239;-79
2023/10/21 10:57:51;;;;;;;10.40;8.00;;;9.30;99.90;;;;;;5027654;28;20617;-79
2023/10/21 11:00:21;;;;;;;9.87;8.23;;;9.30;99.90;;;;;;5026571;28;20219;-79
2023/10/21 11:02:48;;;;;;;10.57;7.83;;;9.30;99.90;;;;;;5025539;28;20703;-79
2023/10/21 11:05:20;;;;;;;12.93;8.30;;;9.30;99.90;;;;;;5027022;28;20230;-79
2023/10/21 11:07:48;;;;;;;9.27;7.90;;;9.30;99.90;;;;;;5027495;28;20251;-81
2023/10/21 11:10:21;;;;;;;10.17;7.80;;;9.20;99.90;;;;;;5024864;28;20232;-81
2023/10/21 11:12:49;;;;;;;10.53;8.43;;;9.30;99.90;;;;;;5025409;28;20231;-80
2023/10/21 11:15:16;;;;;;;10.60;8.50;;;9.20;99.90;;;;;;5023236;28;20221;-80
2023/10/21 11:17:46;;;;;;;12.90;8.57;;;9.20;99.90;;;;;;5028027;28;20219;-81
2023/10/21 11:20:13;;;;;;;12.00;9.00;;;9.20;99.90;;;;;;5028668;28;20236;-81
2023/10/21 11:22:41;;;;;;;11.93;8.43;;;9.20;99.90;;;;;;5029085;28;20754;-80
2023/10/21 11:25:09;;;;;;;13.30;8.80;;;9.30;99.90;;;;;;5022977;28;20238;-80
2023/10/21 11:27:36;;;;;;;12.07;9.20;;;9.20;99.90;;;;;;5033132;28;20243;-80
2023/10/21 11:30:07;;;;;;;11.00;8.30;;;9.30;99.90;;;;;;5030382;28;20589;-81
2023/10/21 11:32:35;;;;;;;10.97;8.27;;;9.30;99.90;;;;;;5025531;28;20227;-80
2023/10/21 11:35:04;;;;;;;9.93;7.57;;;9.30;99.90;;;;;;5026193;28;20235;-80
2023/10/21 11:37:31;;;;;;;12.30;8.60;;;9.30;99.90;;;;;;5041442;28;20603;-80
2023/10/21 11:40:01;;;;;;;11.00;8.47;;;9.30;99.90;;;;;;5021703;28;20251;-80
2023/10/21 11:42:28;;;;;;;16.47;8.63;;;9.30;99.90;;;;;;5023430;28;20231;-79
2023/10/21 11:44:56;;;;;;;10.23;8.40;;;9.30;99.90;;;;;;5028198;28;20242;-79
2023/10/21 11:47:24;;;;;;;12.73;8.80;;;9.40;99.90;;;;;;5026960;28;20231;-79
2023/10/21 11:49:52;;;;;;;11.20;8.47;;;9.40;99.90;;;;;;5023609;28;20223;-79
2023/10/21 11:52:18;;;;;;;9.10;7.60;;;9.40;99.90;;;;;;5026815;28;20831;-79
2023/10/21 11:54:48;;;;;;;11.37;8.90;;;9.40;99.90;;;;;;5026659;28;20227;-79
2023/10/21 12:03:58;;;;;;;12.90;8.80;;;9.50;99.90;;;;;;5023643;28;20230;-81
2023/10/21 12:12:09;;;;;;;12.43;9.37;;;9.60;99.90;;;;;;4996251;28;20231;-80
2023/10/21 12:15:02;;;;;;;13.47;9.30;;;9.70;99.90;;;;;;5028104;28;20282;-80
2023/10/21 12:39:37;;;;;;;32.33;10.73;;;10.40;99.90;;;;;;5058924;28;20704;-80
2023/10/21 12:42:18;;;;;;;11.80;8.33;;;10.60;99.90;;;;;;5063304;28;20379;-81
2023/10/21 12:44:51;;;;;;;39.53;10.77;;;10.70;99.90;;;;;;5063847;28;20230;-81
2023/10/21 12:47:18;;;;;;;14.13;9.00;;;10.90;99.90;;;;;;5061970;28;20326;-80
2023/10/21 12:49:46;;;;;;;10.53;8.40;;;11.00;99.90;;;;;;5063334;28;20306;-80
2023/10/21 12:52:13;;;;;;;9.40;7.93;;;11.20;99.90;;;;;;5060838;28;20253;-80
2023/10/21 12:54:39;;;;;;;9.27;7.47;;;11.30;99.90;;;;;;5061329;28;20237;-80
2023/10/21 12:57:07;;;;;;;8.67;6.70;;;11.40;99.90;;;;;;5056401;28;20413;-80
2023/10/21 12:59:34;;;;;;;9.10;6.73;;;11.40;99.90;;;;;;5061283;28;20222;-80
2023/10/21 13:02:07;;;;;;;9.07;6.70;;;11.30;99.90;;;;;;5060340;28;20219;-79
2023/10/21 13:04:35;;;;;;;7.77;6.60;;;11.30;99.90;;;;;;5059216;28;20257;-79
2023/10/21 13:07:04;;;;;;;15.97;14.40;;;11.20;99.90;;;;;;5061856;28;20778;-79
2023/10/21 13:09:31;;;;;;;7.47;6.37;;;11.20;99.90;;;;;;5062023;28;20224;-79
2023/10/21 13:11:58;;;;;;;8.10;7.00;;;11.10;99.90;;;;;;5064329;28;20224;-79
2023/10/21 13:14:25;;;;;;;6.93;6.23;;;11.00;99.90;;;;;;5061599;28;20243;-79
2023/10/21 13:16:53;;;;;;;18.30;16.63;;;11.00;99.90;;;;;;5063550;28;20220;-79
2023/10/21 13:19:21;;;;;;;64.03;58.43;;;11.00;99.90;;;;;;5060760;28;20703;-79
2023/10/21 13:21:48;;;;;;;11.17;10.07;;;11.00;99.90;;;;;;5059004;28;20490;-79
2023/10/21 13:24:15;;;;;;;14.23;12.93;;;11.10;99.90;;;;;;5056606;28;20229;-78
2023/10/21 13:26:43;;;;;;;12.87;9.90;;;11.20;99.90;;;;;;5052555;28;20949;-80